ADDS METAR Data INFO
IDs: Format: Raw Decoded Include TAF

Data at: 1716 UTC 23 Oct 2017

KFTY 231700Z 26006KT 10SM SCT024 BKN030 19/17 A2989 RMK AO2 T01940172
KFTY 231653Z 28007KT 10SM SCT013 BKN022 OVC028 19/17 A2990 RMK AO2 SLP116 T01890172
KFTY 231628Z 28007KT 10SM SCT013 BKN022 OVC028 19/17 A2991 RMK AO2 T01890172
KFTY 231553Z 29006KT 10SM BKN010 OVC022 18/18 A2990 RMK AO2 RAE27 SLP119 P0005 T01830178
KFTY 231533Z 27003KT 7SM BKN011 BKN027 OVC070 18/17 A2990 RMK AO2 RAE27 P0005 T01780172
KFTY 231453Z VRB04G18KT 2SM +RA BR BKN007 OVC020 17/17 A2989 RMK AO2 RAB1355 SLP115 P0092 60102 T01720172 53005
KFTY 231450Z 28007G24KT 3SM +RA BR SCT006 OVC020 17/17 A2989 RMK AO2 RAB1355 P0087
KFTY 231427Z 30010KT 3SM +RA BR SCT006 BKN010 OVC034 21/21 A2989 RMK AO2 LTG DSNT NE RAB1355 PRESRR P0018 T02060206
KFTY 231406Z 16009KT 3SM -RA BR SCT010 BKN015 OVC028 21/21 A2985 RMK AO2 RAB1355 P0007 T02060206
KFTY 231359Z 15010KT 2SM +RA BR SCT010 BKN014 OVC019 21/21 A2985 RMK AO2 RAB55 P0007 T02060206
KFTY 231356Z 15009KT 5SM -RA BR SCT009 OVC017 21/21 A2985 RMK AO2 RAB55 P0003 T02060206
KFTY 231353Z 15010KT 3SM BR BKN011 BKN047 OVC060 21/21 A2985 RMK AO2 LTG DSNT SW AND W RAE21 SLP101 P0001 T02110206
KFTY 231253Z 16007KT 3SM RA BR BKN011 BKN047 OVC060 21/21 A2988 RMK AO2 SLP109 P0009 T02060206
KFTY 231153Z 17008KT 8SM -RA BKN011 BKN014 OVC025 21/21 A2991 RMK AO2 SLP119 P0004 60036 70037 T02060206 10211 20194 56018
KFTY 231053Z 15008KT 10SM -RA BKN011 BKN075 BKN100 21/21 A2992 RMK AO2 SLP123 P0003 T02060206
KFTY 230953Z 12007KT 7SM -RA BKN011 BKN110 21/21 A2993 RMK AO2 SLP128 P0019 T02060206
KFTY 230938Z 12007KT 7SM RA BKN009 BKN013 OVC039 21/21 A2994 RMK AO2 P0017 T02060206
KFTY 230910Z 14007KT 3SM RA BR SCT006 BKN012 OVC017 21/21 A2996 RMK AO2 P0013 T02060206
KFTY 230907Z 16007KT 2 1/2SM RA BR SCT006 BKN010 OVC017 21/21 A2996 RMK AO2 P0012 T02060206
KFTY 230853Z 13007KT 6SM -RA BR OVC006 21/21 A2996 RMK AO2 RAB33 SLP137 P0005 60010 T02060206 58035
KFTY 230753Z 10006KT 10SM BKN008 BKN013 OVC065 20/20 A3000 RMK AO2 RAB0659E39 CIG 005V010 SLP149 P0005 T02000200
KFTY 230735Z 10004KT 10SM -RA SCT006 BKN013 OVC065 20/20 A3001 RMK AO2 RAB0659 P0005 T02000200
KFTY 230653Z VRB06KT 10SM OVC006 20/20 A3004 RMK AO2 RAE37 SLP164 P0000 T02000200
KFTY 230553Z 10006KT 5SM -RA BR OVC006 20/20 A3007 RMK AO2 RAB29 SLP174 P0001 60001 T02000200 10222 20194 58026
KFTY 230453Z 09006KT 5SM BR OVC007 20/19 A3010 RMK AO2 SLP184 T02000194 402610111
KFTY 230401Z 09010G14KT 10SM OVC008 20/19 A3012 RMK AO2 T02000194
KFTY 230353Z 10006KT 10SM OVC010 20/19 A3012 RMK AO2 CIG 008V013 SLP193 T02000194
KFTY 230253Z 11007KT 10SM OVC014 21/19 A3015 RMK AO2 SLP201 T02110189 53008
KFTY 230243Z 11011G17KT 10SM OVC014 21/19 A3015 RMK AO2 T02110189
KFTY 230153Z 09009G15KT 040V120 10SM OVC018 21/19 A3012 RMK AO2 SLP194 T02110189
KFTY 230053Z 11011G17KT 10SM OVC018 22/18 A3014 RMK AO2 SLP200 T02170183
KFTY 230032Z 11011G18KT 10SM BKN020 22/19 A3014 RMK AO2 T02170189
KFTY 222353Z 10007G16KT 10SM CLR 23/18 A3012 RMK AO2 SLP194 T02280183 10261 20228 55006
KFTY 222253Z 09009KT 10SM FEW041 24/18 A3011 RMK AO2 SLP192 T02440183
KFTY 222153Z 09006KT 10SM CLR 25/18 A3012 RMK AO2 SLP194 T02500183
KFTY 222053Z 12006KT 10SM CLR 26/18 A3014 RMK AO2 SLP200 T02560183 56017
KFTY 221953Z 15012G15KT 10SM FEW041 26/18 A3015 RMK AO2 SLP202 T02610178
KFTY 221853Z 10008KT 10SM FEW034 SCT042 BKN065 25/18 A3016 RMK AO2 SLP208 T02500178
KFTY 221753Z 13010G17KT 10SM SCT031 BKN043 BKN060 24/18 A3019 RMK AO2 SLP218 T02440178 10250 20139 58019
KFTY 221653Z 11009KT 10SM OVC029 24/18 A3022 RMK AO2 SLP228 T02390183
KFTY 221641Z 12011G17KT 10SM BKN027 23/18 A3022 RMK AO2 T02330178
KFTY 221553Z 11009KT 10SM OVC065 22/18 A3024 RMK AO2 SLP235 T02220178
KFTY 221453Z 11007KT 070V140 10SM FEW026 BKN065 21/17 A3025 RMK AO2 SLP237 T02060172 58003
KFTY 221353Z 02004KT 10SM OVC060 18/17 A3027 RMK AO2 SLP246 T01830167
KFTY 221310Z 05006KT 10SM SCT011 OVC060 17/16 A3027 RMK AO2 T01670156
KFTY 221302Z 04007KT 10SM BKN011 OVC060 16/16 A3027 RMK AO2 T01610156
KFTY 221253Z 02003KT 10SM SCT011 OVC060 16/15 A3027 RMK AO2 SLP244 T01560150
KFTY 221153Z 04003KT 10SM FEW011 OVC050 14/14 A3026 RMK AO2 SLP240 T01390139 10144 20111 53006
KFTY 221053Z 05004KT 10SM CLR 12/12 A3025 RMK AO2 SLP238 T01170117
KFTY 220953Z 00000KT 10SM CLR 13/12 A3024 RMK AO2 SLP233 T01280122
KFTY 220853Z 03004KT 10SM CLR 12/12 A3024 RMK AO2 SLP234 T01220122 58009
KFTY 220753Z 00000KT 10SM CLR 13/13 A3025 RMK AO2 SLP236 T01330128
KFTY 220653Z 00000KT 10SM FEW044 13/13 A3025 RMK AO2 SLP240 T01280128
KFTY 220553Z 00000KT 10SM CLR 13/13 A3026 RMK AO2 SLP243 T01330128 10217 20128 58003